In Rescue
 
Open Full Screen Window  High Contrast Mode
March 20, 2019 9:15 PM EDT
Present Weather: Mist
Weather Information
Wind Direction
  ---
Wind Speed
  00 kt (0 mph)
Wind Gust
  00 kt (0 mph)
Altimeter
29.95 in
Visibility
1 3/4 SM
Temperature
02° C
36° F
Dewpoint
02° C
36° F
Humidity
100%
1hr Rain Fall
00.00 in.
24hr Rain Fall
00.00 in.
Sky Condition
Overcast @ 1,200 ft
IFR

METAR KMCD 210115Z AUTO 00000KT 1 3/4SM BR OVC012 02/02 A2995 RMK AO2 T00190019

FAA Disclaimer: The data displayed is for advisory purposes only and is not to be used for flight planning or operations.